Airport View

Enter AWOS ICAO identifier for current METAR.

ex. KFNL

KLHM 220055Z AUTO 00000KT 10SM CLR 11/M05 A3014 RMK AO1

22 Feb 2018 01:11

Frequency: 124.25

Phone: 916-645-0698

Other Area AWOS: KAUN - KBAB - KMCC - KMYV

TAF KBAB 211900Z 2119/2301 VRB06KT 9999 SKC QNH3016INS BECMG 2205/2206 VRB06KT 9999 SCT040 BKN070 610703 QNH3016INS BECMG 2216/2217 19009KT 9999 FEW020 BKN040 610406 QNH3019INS BECMG 2221/2222 13009KT 9999 VCSH FEW020 BKN030 610307 QNH3018INS TX12/2123Z TNM01/2214Z